sensor_id;sensor_type;location;lat;lon;timestamp;P1;durP1;ratioP1;P2;durP2;ratioP2
1276;SDS011;631;51.024;13.826;2023-03-08T00:00:59;14.30;;;13.50;;
1276;SDS011;631;51.024;13.826;2023-03-08T00:03:25;14.63;;;13.82;;
1276;SDS011;631;51.024;13.826;2023-03-08T00:05:50;13.50;;;12.80;;
1276;SDS011;631;51.024;13.826;2023-03-08T00:08:16;14.00;;;13.30;;
1276;SDS011;631;51.024;13.826;2023-03-08T00:10:42;13.57;;;12.88;;
1276;SDS011;631;51.024;13.826;2023-03-08T00:13:09;14.10;;;13.30;;
1276;SDS011;631;51.024;13.826;2023-03-08T00:15:35;14.20;;;13.50;;
1276;SDS011;631;51.024;13.826;2023-03-08T00:18:02;14.15;;;13.35;;
1276;SDS011;631;51.024;13.826;2023-03-08T00:20:28;14.40;;;13.60;;
1276;SDS011;631;51.024;13.826;2023-03-08T00:22:53;14.80;;;13.90;;
1276;SDS011;631;51.024;13.826;2023-03-08T00:25:19;14.30;;;13.50;;
1276;SDS011;631;51.024;13.826;2023-03-08T00:27:45;14.80;;;13.90;;
1276;SDS011;631;51.024;13.826;2023-03-08T00:30:11;14.90;;;14.00;;
1276;SDS011;631;51.024;13.826;2023-03-08T00:32:37;14.38;;;13.48;;
1276;SDS011;631;51.024;13.826;2023-03-08T00:35:03;14.80;;;13.90;;
1276;SDS011;631;51.024;13.826;2023-03-08T00:37:29;15.05;;;14.15;;
1276;SDS011;631;51.024;13.826;2023-03-08T00:39:54;15.07;;;14.13;;
1276;SDS011;631;51.024;13.826;2023-03-08T00:42:20;15.33;;;14.33;;
1276;SDS011;631;51.024;13.826;2023-03-08T00:44:46;15.45;;;14.45;;
1276;SDS011;631;51.024;13.826;2023-03-08T00:47:12;16.00;;;15.00;;
1276;SDS011;631;51.024;13.826;2023-03-08T00:49:38;15.90;;;14.70;;
1276;SDS011;631;51.024;13.826;2023-03-08T00:52:04;15.23;;;14.33;;
1276;SDS011;631;51.024;13.826;2023-03-08T00:54:30;15.27;;;14.30;;
1276;SDS011;631;51.024;13.826;2023-03-08T00:56:56;14.55;;;13.75;;
1276;SDS011;631;51.024;13.826;2023-03-08T00:59:22;13.93;;;13.13;;
1276;SDS011;631;51.024;13.826;2023-03-08T01:01:47;14.40;;;13.60;;
1276;SDS011;631;51.024;13.826;2023-03-08T01:04:13;13.77;;;12.90;;
1276;SDS011;631;51.024;13.826;2023-03-08T01:06:39;13.00;;;12.30;;
1276;SDS011;631;51.024;13.826;2023-03-08T01:09:07;13.90;;;13.10;;
1276;SDS011;631;51.024;13.826;2023-03-08T01:11:33;13.70;;;12.90;;
1276;SDS011;631;51.024;13.826;2023-03-08T01:13:59;13.90;;;13.20;;
1276;SDS011;631;51.024;13.826;2023-03-08T01:16:26;13.43;;;12.70;;
1276;SDS011;631;51.024;13.826;2023-03-08T01:18:54;13.60;;;12.80;;
1276;SDS011;631;51.024;13.826;2023-03-08T01:21:20;12.82;;;12.13;;
1276;SDS011;631;51.024;13.826;2023-03-08T01:23:46;13.82;;;13.02;;
1276;SDS011;631;51.024;13.826;2023-03-08T01:26:13;14.80;;;13.90;;
1276;SDS011;631;51.024;13.826;2023-03-08T01:28:40;14.57;;;13.60;;
1276;SDS011;631;51.024;13.826;2023-03-08T01:31:07;14.98;;;13.90;;
1276;SDS011;631;51.024;13.826;2023-03-08T01:33:36;15.10;;;14.10;;
1276;SDS011;631;51.024;13.826;2023-03-08T01:36:02;15.97;;;14.97;;
1276;SDS011;631;51.024;13.826;2023-03-08T01:38:29;14.85;;;13.88;;
1276;SDS011;631;51.024;13.826;2023-03-08T01:40:56;15.00;;;14.03;;
1276;SDS011;631;51.024;13.826;2023-03-08T01:46:03;15.90;;;14.80;;
1276;SDS011;631;51.024;13.826;2023-03-08T01:48:52;15.15;;;14.13;;
1276;SDS011;631;51.024;13.826;2023-03-08T01:54:09;14.98;;;13.98;;
1276;SDS011;631;51.024;13.826;2023-03-08T01:56:45;15.35;;;14.27;;
1276;SDS011;631;51.024;13.826;2023-03-08T01:59:13;14.75;;;13.85;;
1276;SDS011;631;51.024;13.826;2023-03-08T02:01:39;14.97;;;13.97;;
1276;SDS011;631;51.024;13.826;2023-03-08T02:04:05;15.20;;;14.23;;
1276;SDS011;631;51.024;13.826;2023-03-08T02:06:33;15.52;;;14.32;;
1276;SDS011;631;51.024;13.826;2023-03-08T02:08:59;14.87;;;13.87;;
1276;SDS011;631;51.024;13.826;2023-03-08T02:11:28;15.50;;;14.50;;
1276;SDS011;631;51.024;13.826;2023-03-08T02:13:55;15.52;;;14.52;;
1276;SDS011;631;51.024;13.826;2023-03-08T02:16:21;15.40;;;14.30;;
1276;SDS011;631;51.024;13.826;2023-03-08T02:18:48;15.37;;;14.37;;
1276;SDS011;631;51.024;13.826;2023-03-08T02:21:17;15.10;;;14.00;;
1276;SDS011;631;51.024;13.826;2023-03-08T02:23:43;15.60;;;14.40;;
1276;SDS011;631;51.024;13.826;2023-03-08T02:26:08;15.87;;;14.67;;
1276;SDS011;631;51.024;13.826;2023-03-08T02:28:34;15.17;;;14.17;;
1276;SDS011;631;51.024;13.826;2023-03-08T02:31:00;15.53;;;14.33;;
1276;SDS011;631;51.024;13.826;2023-03-08T02:33:25;15.93;;;14.73;;
1276;SDS011;631;51.024;13.826;2023-03-08T02:35:51;15.63;;;14.53;;
1276;SDS011;631;51.024;13.826;2023-03-08T02:38:18;16.17;;;15.00;;
1276;SDS011;631;51.024;13.826;2023-03-08T02:40:45;15.48;;;14.27;;
1276;SDS011;631;51.024;13.826;2023-03-08T02:43:11;16.10;;;14.90;;
1276;SDS011;631;51.024;13.826;2023-03-08T02:45:36;15.67;;;14.47;;
1276;SDS011;631;51.024;13.826;2023-03-08T02:48:03;15.20;;;14.23;;
1276;SDS011;631;51.024;13.826;2023-03-08T02:50:29;15.88;;;14.68;;
1276;SDS011;631;51.024;13.826;2023-03-08T02:52:55;15.15;;;14.05;;
1276;SDS011;631;51.024;13.826;2023-03-08T02:55:21;14.50;;;13.60;;
1276;SDS011;631;51.024;13.826;2023-03-08T02:57:47;15.33;;;14.23;;
1276;SDS011;631;51.024;13.826;2023-03-08T03:00:12;14.73;;;13.63;;
1276;SDS011;631;51.024;13.826;2023-03-08T03:02:38;16.67;;;15.20;;
1276;SDS011;631;51.024;13.826;2023-03-08T03:05:04;15.20;;;14.10;;
1276;SDS011;631;51.024;13.826;2023-03-08T03:07:35;16.52;;;15.25;;
1276;SDS011;631;51.024;13.826;2023-03-08T03:10:02;16.15;;;14.80;;
1276;SDS011;631;51.024;13.826;2023-03-08T03:12:29;15.82;;;14.52;;
1276;SDS011;631;51.024;13.826;2023-03-08T03:14:54;15.38;;;14.27;;
1276;SDS011;631;51.024;13.826;2023-03-08T03:17:20;15.10;;;14.00;;
1276;SDS011;631;51.024;13.826;2023-03-08T03:19:46;15.60;;;14.30;;
1276;SDS011;631;51.024;13.826;2023-03-08T03:22:11;17.07;;;15.70;;
1276;SDS011;631;51.024;13.826;2023-03-08T03:24:37;17.60;;;16.00;;
1276;SDS011;631;51.024;13.826;2023-03-08T03:27:03;16.47;;;15.27;;
1276;SDS011;631;51.024;13.826;2023-03-08T03:29:29;17.10;;;15.70;;
1276;SDS011;631;51.024;13.826;2023-03-08T03:31:55;15.80;;;14.50;;
1276;SDS011;631;51.024;13.826;2023-03-08T03:34:20;15.60;;;14.27;;
1276;SDS011;631;51.024;13.826;2023-03-08T03:36:46;15.57;;;14.30;;
1276;SDS011;631;51.024;13.826;2023-03-08T03:39:11;15.57;;;14.30;;
1276;SDS011;631;51.024;13.826;2023-03-08T03:41:37;15.87;;;14.67;;
1276;SDS011;631;51.024;13.826;2023-03-08T03:44:03;16.13;;;14.83;;
1276;SDS011;631;51.024;13.826;2023-03-08T03:46:29;15.77;;;14.50;;
1276;SDS011;631;51.024;13.826;2023-03-08T03:48:54;15.90;;;14.37;;
1276;SDS011;631;51.024;13.826;2023-03-08T03:51:20;16.37;;;14.93;;
1276;SDS011;631;51.024;13.826;2023-03-08T03:53:47;16.20;;;14.85;;
1276;SDS011;631;51.024;13.826;2023-03-08T03:56:14;17.02;;;15.52;;
1276;SDS011;631;51.024;13.826;2023-03-08T03:58:42;16.55;;;15.07;;
1276;SDS011;631;51.024;13.826;2023-03-08T04:01:15;16.52;;;15.05;;
1276;SDS011;631;51.024;13.826;2023-03-08T04:03:44;16.65;;;15.27;;
1276;SDS011;631;51.024;13.826;2023-03-08T04:06:12;17.02;;;15.68;;
1276;SDS011;631;51.024;13.826;2023-03-08T04:08:40;16.50;;;15.00;;
1276;SDS011;631;51.024;13.826;2023-03-08T04:11:10;16.70;;;15.10;;
1276;SDS011;631;51.024;13.826;2023-03-08T04:13:38;15.57;;;14.02;;
1276;SDS011;631;51.024;13.826;2023-03-08T04:16:14;16.48;;;15.18;;
1276;SDS011;631;51.024;13.826;2023-03-08T04:18:41;16.42;;;14.85;;
1276;SDS011;631;51.024;13.826;2023-03-08T04:21:07;16.95;;;15.55;;
1276;SDS011;631;51.024;13.826;2023-03-08T04:23:33;16.73;;;15.27;;
1276;SDS011;631;51.024;13.826;2023-03-08T04:26:00;16.75;;;15.23;;
1276;SDS011;631;51.024;13.826;2023-03-08T04:28:26;16.55;;;15.05;;
1276;SDS011;631;51.024;13.826;2023-03-08T04:30:52;16.80;;;15.32;;
1276;SDS011;631;51.024;13.826;2023-03-08T04:33:18;18.08;;;16.40;;
1276;SDS011;631;51.024;13.826;2023-03-08T04:35:43;18.20;;;16.43;;
1276;SDS011;631;51.024;13.826;2023-03-08T04:38:09;18.00;;;16.30;;
1276;SDS011;631;51.024;13.826;2023-03-08T04:40:36;17.67;;;15.82;;
1276;SDS011;631;51.024;13.826;2023-03-08T04:43:21;17.92;;;16.25;;
1276;SDS011;631;51.024;13.826;2023-03-08T04:45:47;17.43;;;15.73;;
1276;SDS011;631;51.024;13.826;2023-03-08T04:48:13;17.53;;;15.87;;
1276;SDS011;631;51.024;13.826;2023-03-08T04:50:38;17.97;;;16.17;;
1276;SDS011;631;51.024;13.826;2023-03-08T04:53:04;18.50;;;16.63;;
1276;SDS011;631;51.024;13.826;2023-03-08T04:55:32;17.25;;;15.50;;
1276;SDS011;631;51.024;13.826;2023-03-08T04:58:00;18.00;;;16.10;;
1276;SDS011;631;51.024;13.826;2023-03-08T05:00:26;16.63;;;14.87;;
1276;SDS011;631;51.024;13.826;2023-03-08T05:02:51;16.93;;;15.33;;
1276;SDS011;631;51.024;13.826;2023-03-08T05:05:17;15.40;;;14.00;;
1276;SDS011;631;51.024;13.826;2023-03-08T05:07:43;17.90;;;16.10;;
1276;SDS011;631;51.024;13.826;2023-03-08T05:10:08;17.53;;;15.73;;
1276;SDS011;631;51.024;13.826;2023-03-08T05:12:34;18.52;;;15.70;;
1276;SDS011;631;51.024;13.826;2023-03-08T05:15:00;17.70;;;15.47;;
1276;SDS011;631;51.024;13.826;2023-03-08T05:17:26;18.87;;;16.67;;
1276;SDS011;631;51.024;13.826;2023-03-08T05:19:51;18.60;;;16.70;;
1276;SDS011;631;51.024;13.826;2023-03-08T05:22:17;17.60;;;16.00;;
1276;SDS011;631;51.024;13.826;2023-03-08T05:24:42;20.03;;;17.40;;
1276;SDS011;631;51.024;13.826;2023-03-08T05:27:08;19.17;;;17.17;;
1276;SDS011;631;51.024;13.826;2023-03-08T05:29:34;17.87;;;16.17;;
1276;SDS011;631;51.024;13.826;2023-03-08T05:32:01;18.90;;;16.85;;
1276;SDS011;631;51.024;13.826;2023-03-08T05:34:27;18.88;;;16.90;;
1276;SDS011;631;51.024;13.826;2023-03-08T05:36:54;19.05;;;16.08;;
1276;SDS011;631;51.024;13.826;2023-03-08T05:39:19;21.23;;;17.60;;
1276;SDS011;631;51.024;13.826;2023-03-08T05:41:45;19.60;;;17.50;;
1276;SDS011;631;51.024;13.826;2023-03-08T05:44:12;21.35;;;18.17;;
1276;SDS011;631;51.024;13.826;2023-03-08T05:46:38;20.17;;;18.07;;
1276;SDS011;631;51.024;13.826;2023-03-08T05:49:04;20.43;;;17.23;;
1276;SDS011;631;51.024;13.826;2023-03-08T05:51:30;20.45;;;18.20;;
1276;SDS011;631;51.024;13.826;2023-03-08T05:53:55;20.37;;;17.33;;
1276;SDS011;631;51.024;13.826;2023-03-08T05:56:21;19.30;;;17.20;;
1276;SDS011;631;51.024;13.826;2023-03-08T05:58:48;22.63;;;18.15;;
1276;SDS011;631;51.024;13.826;2023-03-08T06:01:16;19.80;;;17.70;;
1276;SDS011;631;51.024;13.826;2023-03-08T06:03:49;24.20;;;19.15;;
1276;SDS011;631;51.024;13.826;2023-03-08T06:06:18;20.20;;;17.45;;
1276;SDS011;631;51.024;13.826;2023-03-08T06:08:44;23.45;;;19.38;;
1276;SDS011;631;51.024;13.826;2023-03-08T06:11:11;20.13;;;18.13;;
1276;SDS011;631;51.024;13.826;2023-03-08T06:13:36;19.13;;;16.87;;
1276;SDS011;631;51.024;13.826;2023-03-08T06:16:02;21.47;;;19.27;;
1276;SDS011;631;51.024;13.826;2023-03-08T06:18:29;21.27;;;18.55;;
1276;SDS011;631;51.024;13.826;2023-03-08T06:21:02;23.27;;;19.17;;
1276;SDS011;631;51.024;13.826;2023-03-08T06:23:30;23.98;;;20.15;;
1276;SDS011;631;51.024;13.826;2023-03-08T06:25:57;22.25;;;19.85;;
1276;SDS011;631;51.024;13.826;2023-03-08T06:28:23;20.88;;;18.67;;
1276;SDS011;631;51.024;13.826;2023-03-08T06:30:50;21.38;;;19.13;;
1276;SDS011;631;51.024;13.826;2023-03-08T06:33:16;19.33;;;17.40;;
1276;SDS011;631;51.024;13.826;2023-03-08T06:35:43;19.38;;;17.45;;
1276;SDS011;631;51.024;13.826;2023-03-08T06:38:19;21.55;;;18.00;;
1276;SDS011;631;51.024;13.826;2023-03-08T06:40:44;20.70;;;18.60;;
1276;SDS011;631;51.024;13.826;2023-03-08T06:43:10;21.07;;;18.93;;
1276;SDS011;631;51.024;13.826;2023-03-08T06:45:38;19.93;;;17.90;;
1276;SDS011;631;51.024;13.826;2023-03-08T06:48:04;21.08;;;18.65;;
1276;SDS011;631;51.024;13.826;2023-03-08T06:50:31;22.23;;;19.93;;
1276;SDS011;631;51.024;13.826;2023-03-08T06:52:57;21.50;;;19.30;;
1276;SDS011;631;51.024;13.826;2023-03-08T06:55:22;21.07;;;17.90;;
1276;SDS011;631;51.024;13.826;2023-03-08T06:57:48;21.13;;;19.03;;
1276;SDS011;631;51.024;13.826;2023-03-08T07:00:14;20.17;;;18.17;;
1276;SDS011;631;51.024;13.826;2023-03-08T07:02:40;19.17;;;17.27;;
1276;SDS011;631;51.024;13.826;2023-03-08T07:05:05;19.33;;;17.53;;
1276;SDS011;631;51.024;13.826;2023-03-08T07:07:31;19.70;;;17.90;;
1276;SDS011;631;51.024;13.826;2023-03-08T07:09:59;19.15;;;17.25;;
1276;SDS011;631;51.024;13.826;2023-03-08T07:12:25;19.77;;;17.87;;
1276;SDS011;631;51.024;13.826;2023-03-08T07:14:51;18.80;;;17.00;;
1276;SDS011;631;51.024;13.826;2023-03-08T07:17:17;19.55;;;17.73;;
1276;SDS011;631;51.024;13.826;2023-03-08T07:19:43;22.05;;;19.95;;
1276;SDS011;631;51.024;13.826;2023-03-08T07:22:09;22.40;;;20.30;;
1276;SDS011;631;51.024;13.826;2023-03-08T07:24:36;21.23;;;19.30;;
1276;SDS011;631;51.024;13.826;2023-03-08T07:27:02;21.05;;;19.27;;
1276;SDS011;631;51.024;13.826;2023-03-08T07:29:30;22.35;;;20.20;;
1276;SDS011;631;51.024;13.826;2023-03-08T07:31:55;21.83;;;19.77;;
1276;SDS011;631;51.024;13.826;2023-03-08T07:34:21;21.73;;;19.63;;
1276;SDS011;631;51.024;13.826;2023-03-08T07:36:47;22.10;;;20.07;;
1276;SDS011;631;51.024;13.826;2023-03-08T07:39:13;21.85;;;19.70;;
1276;SDS011;631;51.024;13.826;2023-03-08T07:41:40;21.15;;;19.25;;
1276;SDS011;631;51.024;13.826;2023-03-08T07:44:06;22.47;;;20.57;;
1276;SDS011;631;51.024;13.826;2023-03-08T07:46:31;23.43;;;21.30;;
1276;SDS011;631;51.024;13.826;2023-03-08T07:48:57;22.10;;;20.17;;
1276;SDS011;631;51.024;13.826;2023-03-08T07:51:23;21.80;;;20.00;;
1276;SDS011;631;51.024;13.826;2023-03-08T07:53:50;23.90;;;21.70;;
1276;SDS011;631;51.024;13.826;2023-03-08T07:56:16;22.85;;;20.73;;
1276;SDS011;631;51.024;13.826;2023-03-08T07:58:42;22.13;;;20.33;;
1276;SDS011;631;51.024;13.826;2023-03-08T08:01:08;21.97;;;20.20;;
1276;SDS011;631;51.024;13.826;2023-03-08T08:03:35;22.00;;;20.20;;
1276;SDS011;631;51.024;13.826;2023-03-08T08:06:02;22.38;;;20.48;;
1276;SDS011;631;51.024;13.826;2023-03-08T08:08:31;21.58;;;19.88;;
1276;SDS011;631;51.024;13.826;2023-03-08T08:10:57;22.03;;;20.13;;
1276;SDS011;631;51.024;13.826;2023-03-08T08:13:23;21.90;;;20.10;;
1276;SDS011;631;51.024;13.826;2023-03-08T08:15:58;21.97;;;20.20;;
1276;SDS011;631;51.024;13.826;2023-03-08T08:18:25;23.17;;;21.27;;
1276;SDS011;631;51.024;13.826;2023-03-08T08:20:57;23.17;;;21.30;;
1276;SDS011;631;51.024;13.826;2023-03-08T08:23:24;21.40;;;19.60;;
1276;SDS011;631;51.024;13.826;2023-03-08T08:25:49;21.20;;;19.60;;
1276;SDS011;631;51.024;13.826;2023-03-08T08:28:15;22.47;;;20.57;;
1276;SDS011;631;51.024;13.826;2023-03-08T08:30:40;21.70;;;20.00;;
1276;SDS011;631;51.024;13.826;2023-03-08T08:33:06;21.30;;;19.63;;
1276;SDS011;631;51.024;13.826;2023-03-08T08:35:32;21.93;;;20.30;;
1276;SDS011;631;51.024;13.826;2023-03-08T08:37:57;22.03;;;20.27;;
1276;SDS011;631;51.024;13.826;2023-03-08T08:40:23;20.97;;;19.47;;
1276;SDS011;631;51.024;13.826;2023-03-08T08:42:48;18.77;;;17.57;;
1276;SDS011;631;51.024;13.826;2023-03-08T08:45:16;20.20;;;18.80;;
1276;SDS011;631;51.024;13.826;2023-03-08T08:47:41;20.27;;;18.87;;
1276;SDS011;631;51.024;13.826;2023-03-08T08:50:07;21.23;;;19.57;;
1276;SDS011;631;51.024;13.826;2023-03-08T08:52:33;19.90;;;18.50;;
1276;SDS011;631;51.024;13.826;2023-03-08T08:54:59;21.47;;;19.90;;
1276;SDS011;631;51.024;13.826;2023-03-08T08:57:25;22.30;;;20.45;;
1276;SDS011;631;51.024;13.826;2023-03-08T08:59:51;21.90;;;20.07;;
1276;SDS011;631;51.024;13.826;2023-03-08T09:02:16;21.57;;;19.80;;
1276;SDS011;631;51.024;13.826;2023-03-08T09:04:42;21.93;;;20.23;;
1276;SDS011;631;51.024;13.826;2023-03-08T09:07:08;20.90;;;19.20;;
1276;SDS011;631;51.024;13.826;2023-03-08T09:09:33;20.27;;;18.77;;
1276;SDS011;631;51.024;13.826;2023-03-08T09:11:59;21.60;;;19.80;;
1276;SDS011;631;51.024;13.826;2023-03-08T09:14:25;19.43;;;18.03;;
1276;SDS011;631;51.024;13.826;2023-03-08T09:16:50;20.40;;;18.87;;
1276;SDS011;631;51.024;13.826;2023-03-08T09:19:16;19.67;;;18.08;;
1276;SDS011;631;51.024;13.826;2023-03-08T09:21:42;20.83;;;19.20;;
1276;SDS011;631;51.024;13.826;2023-03-08T09:24:09;19.57;;;17.83;;
1276;SDS011;631;51.024;13.826;2023-03-08T09:26:35;19.73;;;18.08;;
1276;SDS011;631;51.024;13.826;2023-03-08T09:29:01;18.43;;;17.03;;
1276;SDS011;631;51.024;13.826;2023-03-08T09:31:29;18.50;;;17.10;;
1276;SDS011;631;51.024;13.826;2023-03-08T09:33:56;18.83;;;17.13;;
1276;SDS011;631;51.024;13.826;2023-03-08T09:36:22;18.03;;;16.43;;
1276;SDS011;631;51.024;13.826;2023-03-08T09:38:48;17.60;;;16.30;;
1276;SDS011;631;51.024;13.826;2023-03-08T09:46:41;18.95;;;17.50;;
1276;SDS011;631;51.024;13.826;2023-03-08T09:49:14;18.40;;;17.00;;
1276;SDS011;631;51.024;13.826;2023-03-08T09:51:48;18.25;;;16.85;;
1276;SDS011;631;51.024;13.826;2023-03-08T09:54:18;19.08;;;17.58;;
1276;SDS011;631;51.024;13.826;2023-03-08T09:56:48;18.83;;;17.40;;
1276;SDS011;631;51.024;13.826;2023-03-08T10:04:45;16.60;;;15.40;;
1276;SDS011;631;51.024;13.826;2023-03-08T10:07:18;17.10;;;15.90;;
1276;SDS011;631;51.024;13.826;2023-03-08T10:09:57;16.85;;;15.65;;
1276;SDS011;631;51.024;13.826;2023-03-08T10:15:24;16.20;;;15.02;;
1276;SDS011;631;51.024;13.826;2023-03-08T10:20:21;16.40;;;15.30;;
1276;SDS011;631;51.024;13.826;2023-03-08T10:22:59;15.80;;;14.80;;
1276;SDS011;631;51.024;13.826;2023-03-08T10:25:28;15.52;;;14.52;;
1276;SDS011;631;51.024;13.826;2023-03-08T10:27:56;15.70;;;14.57;;
1276;SDS011;631;51.024;13.826;2023-03-08T10:30:30;16.30;;;15.20;;
1276;SDS011;631;51.024;13.826;2023-03-08T10:32:58;15.48;;;14.55;;
1276;SDS011;631;51.024;13.826;2023-03-08T10:35:34;17.10;;;15.90;;
1276;SDS011;631;51.024;13.826;2023-03-08T10:38:28;16.50;;;15.35;;
1276;SDS011;631;51.024;13.826;2023-03-08T10:41:02;15.95;;;14.95;;
1276;SDS011;631;51.024;13.826;2023-03-08T10:43:31;17.05;;;15.85;;
1276;SDS011;631;51.024;13.826;2023-03-08T10:46:04;16.20;;;15.20;;
1276;SDS011;631;51.024;13.826;2023-03-08T10:48:34;17.05;;;15.85;;
1276;SDS011;631;51.024;13.826;2023-03-08T10:51:01;15.90;;;14.90;;
1276;SDS011;631;51.024;13.826;2023-03-08T10:53:39;16.70;;;15.50;;
1276;SDS011;631;51.024;13.826;2023-03-08T10:56:15;17.13;;;16.03;;
1276;SDS011;631;51.024;13.826;2023-03-08T10:58:53;17.30;;;15.95;;
1276;SDS011;631;51.024;13.826;2023-03-08T11:01:46;18.08;;;16.70;;
1276;SDS011;631;51.024;13.826;2023-03-08T11:04:17;18.58;;;17.08;;
1276;SDS011;631;51.024;13.826;2023-03-08T11:06:44;19.17;;;17.75;;
1276;SDS011;631;51.024;13.826;2023-03-08T11:09:20;19.07;;;17.67;;
1276;SDS011;631;51.024;13.826;2023-03-08T11:11:57;19.30;;;17.80;;
1276;SDS011;631;51.024;13.826;2023-03-08T11:14:24;20.88;;;19.17;;
1276;SDS011;631;51.024;13.826;2023-03-08T11:22:28;20.70;;;19.10;;
1276;SDS011;631;51.024;13.826;2023-03-08T11:25:02;21.35;;;19.65;;
1276;SDS011;631;51.024;13.826;2023-03-08T11:30:40;22.15;;;20.35;;
1276;SDS011;631;51.024;13.826;2023-03-08T11:38:39;23.90;;;21.80;;
1276;SDS011;631;51.024;13.826;2023-03-08T11:46:56;24.85;;;22.55;;
1276;SDS011;631;51.024;13.826;2023-03-08T11:49:27;25.88;;;23.35;;
1276;SDS011;631;51.024;13.826;2023-03-08T11:52:00;26.50;;;24.00;;
1276;SDS011;631;51.024;13.826;2023-03-08T11:57:45;28.80;;;25.90;;
1276;SDS011;631;51.024;13.826;2023-03-08T12:00:31;28.80;;;26.00;;
1276;SDS011;631;51.024;13.826;2023-03-08T12:03:02;29.35;;;26.50;;
1276;SDS011;631;51.024;13.826;2023-03-08T12:05:37;29.50;;;26.40;;
1276;SDS011;631;51.024;13.826;2023-03-08T12:13:31;28.10;;;25.40;;
1276;SDS011;631;51.024;13.826;2023-03-08T12:16:07;28.90;;;26.10;;
1276;SDS011;631;51.024;13.826;2023-03-08T12:18:57;29.73;;;26.67;;
1276;SDS011;631;51.024;13.826;2023-03-08T12:21:59;28.40;;;25.63;;
1276;SDS011;631;51.024;13.826;2023-03-08T12:25:02;28.92;;;26.23;;
1276;SDS011;631;51.024;13.826;2023-03-08T12:33:14;29.30;;;26.50;;
1276;SDS011;631;51.024;13.826;2023-03-08T12:35:55;28.70;;;26.00;;
1276;SDS011;631;51.024;13.826;2023-03-08T12:40:53;27.70;;;25.05;;
1276;SDS011;631;51.024;13.826;2023-03-08T12:46:05;28.13;;;25.53;;
1276;SDS011;631;51.024;13.826;2023-03-08T12:58:58;27.10;;;24.60;;
1276;SDS011;631;51.024;13.826;2023-03-08T13:03:54;28.10;;;25.50;;
1276;SDS011;631;51.024;13.826;2023-03-08T13:08:56;27.88;;;25.38;;
1276;SDS011;631;51.024;13.826;2023-03-08T13:11:24;26.65;;;24.15;;
1276;SDS011;631;51.024;13.826;2023-03-08T13:14:02;25.35;;;23.15;;
1276;SDS011;631;51.024;13.826;2023-03-08T13:16:33;24.88;;;22.63;;
1276;SDS011;631;51.024;13.826;2023-03-08T13:21:35;24.52;;;22.50;;
1276;SDS011;631;51.024;13.826;2023-03-08T13:24:29;24.55;;;22.45;;
1276;SDS011;631;51.024;13.826;2023-03-08T13:29:34;24.38;;;22.10;;
1276;SDS011;631;51.024;13.826;2023-03-08T13:32:04;23.30;;;21.42;;
1276;SDS011;631;51.024;13.826;2023-03-08T13:34:35;23.30;;;21.30;;
1276;SDS011;631;51.024;13.826;2023-03-08T13:37:02;24.33;;;22.27;;
1276;SDS011;631;51.024;13.826;2023-03-08T13:39:28;23.90;;;22.00;;
1276;SDS011;631;51.024;13.826;2023-03-08T13:42:09;23.77;;;21.75;;
1276;SDS011;631;51.024;13.826;2023-03-08T13:44:36;23.35;;;21.45;;
1276;SDS011;631;51.024;13.826;2023-03-08T13:47:03;23.08;;;21.17;;
1276;SDS011;631;51.024;13.826;2023-03-08T13:49:48;22.98;;;21.08;;
1276;SDS011;631;51.024;13.826;2023-03-08T13:52:17;21.42;;;19.73;;
1276;SDS011;631;51.024;13.826;2023-03-08T13:54:50;21.10;;;19.48;;
1276;SDS011;631;51.024;13.826;2023-03-08T13:57:20;21.90;;;20.20;;
1276;SDS011;631;51.024;13.826;2023-03-08T13:59:51;20.92;;;19.42;;
1276;SDS011;631;51.024;13.826;2023-03-08T14:02:23;21.05;;;19.55;;
1276;SDS011;631;51.024;13.826;2023-03-08T14:04:51;19.83;;;18.42;;
1276;SDS011;631;51.024;13.826;2023-03-08T14:07:22;20.65;;;19.15;;
1276;SDS011;631;51.024;13.826;2023-03-08T14:09:52;21.73;;;20.17;;
1276;SDS011;631;51.024;13.826;2023-03-08T14:12:19;21.15;;;19.60;;
1276;SDS011;631;51.024;13.826;2023-03-08T14:14:50;19.85;;;18.42;;
1276;SDS011;631;51.024;13.826;2023-03-08T14:17:19;19.95;;;18.55;;
1276;SDS011;631;51.024;13.826;2023-03-08T14:20:32;21.02;;;19.52;;
1276;SDS011;631;51.024;13.826;2023-03-08T14:22:59;20.05;;;18.55;;
1276;SDS011;631;51.024;13.826;2023-03-08T14:25:31;21.20;;;19.70;;
1276;SDS011;631;51.024;13.826;2023-03-08T14:27:57;20.73;;;19.23;;
1276;SDS011;631;51.024;13.826;2023-03-08T14:30:24;21.00;;;19.40;;
1276;SDS011;631;51.024;13.826;2023-03-08T14:35:25;22.13;;;20.42;;
1276;SDS011;631;51.024;13.826;2023-03-08T14:37:53;21.08;;;19.45;;
1276;SDS011;631;51.024;13.826;2023-03-08T14:40:27;21.15;;;19.58;;
1276;SDS011;631;51.024;13.826;2023-03-08T14:42:57;21.30;;;19.60;;
1276;SDS011;631;51.024;13.826;2023-03-08T14:45:39;21.30;;;19.67;;
1276;SDS011;631;51.024;13.826;2023-03-08T14:53:35;24.95;;;22.85;;
1276;SDS011;631;51.024;13.826;2023-03-08T14:56:13;21.20;;;19.70;;
1276;SDS011;631;51.024;13.826;2023-03-08T14:58:43;21.50;;;19.83;;
1276;SDS011;631;51.024;13.826;2023-03-08T15:01:21;22.58;;;20.88;;
1276;SDS011;631;51.024;13.826;2023-03-08T15:03:48;21.20;;;19.60;;
1276;SDS011;631;51.024;13.826;2023-03-08T15:06:16;20.70;;;19.10;;
1276;SDS011;631;51.024;13.826;2023-03-08T15:08:45;20.85;;;19.25;;
1276;SDS011;631;51.024;13.826;2023-03-08T15:11:11;21.17;;;19.67;;
1276;SDS011;631;51.024;13.826;2023-03-08T15:13:37;20.17;;;18.77;;
1276;SDS011;631;51.024;13.826;2023-03-08T15:16:03;20.93;;;19.43;;
1276;SDS011;631;51.024;13.826;2023-03-08T15:18:30;22.58;;;20.88;;
1276;SDS011;631;51.024;13.826;2023-03-08T15:20:56;21.93;;;20.43;;
1276;SDS011;631;51.024;13.826;2023-03-08T15:23:23;23.20;;;21.50;;
1276;SDS011;631;51.024;13.826;2023-03-08T15:25:51;22.35;;;20.73;;
1276;SDS011;631;51.024;13.826;2023-03-08T15:28:18;22.77;;;21.08;;
1276;SDS011;631;51.024;13.826;2023-03-08T15:30:45;22.52;;;20.85;;
1276;SDS011;631;51.024;13.826;2023-03-08T15:33:11;24.35;;;22.45;;
1276;SDS011;631;51.024;13.826;2023-03-08T15:35:37;23.23;;;21.50;;
1276;SDS011;631;51.024;13.826;2023-03-08T15:38:04;25.40;;;23.30;;
1276;SDS011;631;51.024;13.826;2023-03-08T15:40:30;24.80;;;22.80;;
1276;SDS011;631;51.024;13.826;2023-03-08T15:42:56;24.95;;;22.92;;
1276;SDS011;631;51.024;13.826;2023-03-08T15:45:22;25.80;;;23.70;;
1276;SDS011;631;51.024;13.826;2023-03-08T15:47:55;25.37;;;23.27;;
1276;SDS011;631;51.024;13.826;2023-03-08T15:50:21;27.10;;;24.65;;
1276;SDS011;631;51.024;13.826;2023-03-08T15:52:47;26.27;;;24.17;;
1276;SDS011;631;51.024;13.826;2023-03-08T15:55:13;26.93;;;24.67;;
1276;SDS011;631;51.024;13.826;2023-03-08T15:57:39;26.97;;;24.77;;
1276;SDS011;631;51.024;13.826;2023-03-08T16:00:06;28.58;;;26.08;;
1276;SDS011;631;51.024;13.826;2023-03-08T16:02:33;28.50;;;26.08;;
1276;SDS011;631;51.024;13.826;2023-03-08T16:05:00;33.03;;;30.17;;
1276;SDS011;631;51.024;13.826;2023-03-08T16:07:26;29.95;;;27.35;;
1276;SDS011;631;51.024;13.826;2023-03-08T16:09:52;27.80;;;25.50;;
1276;SDS011;631;51.024;13.826;2023-03-08T16:12:17;27.87;;;25.63;;
1276;SDS011;631;51.024;13.826;2023-03-08T16:14:47;28.33;;;25.87;;
1276;SDS011;631;51.024;13.826;2023-03-08T16:17:14;29.55;;;27.02;;
1276;SDS011;631;51.024;13.826;2023-03-08T16:19:40;27.05;;;24.65;;
1276;SDS011;631;51.024;13.826;2023-03-08T16:22:06;26.70;;;24.50;;
1276;SDS011;631;51.024;13.826;2023-03-08T16:24:32;27.90;;;25.50;;